Terminal Aerodrome Forecast
Issued by NWS

Home | Current Version | Previous Version | Text Only | Print | Product List | Glossary On
Versions: 1 2 3 4 5 6 7 8 9 10 11 12 13 14 15 16 17 18 19
000
FTUS43 KICT 312328
TAFHUT
TAF
KHUT 312328Z 0100/0124 04006KT P6SM SCT250
     FM010800 02006KT P6SM SCT250
     FM011700 06010KT P6SM SCT250=

USA.gov is the U.S. government's official web portal to all federal, state and local government web resources and services.